createdAt,value
2019-02-27T00:12:59.586Z,80.65
2019-02-27T00:43:03.432Z,89.55
2019-02-27T01:13:07.160Z,99.45
2019-02-27T01:43:10.832Z,107.50
2019-02-27T02:13:17.921Z,74.27
2019-02-27T02:43:30.630Z,84.42
2019-02-27T03:43:47.757Z,85.40
2019-02-27T04:13:51.530Z,84.07
2019-02-27T04:43:55.647Z,90.53
2019-02-27T05:13:59.360Z,82.82
2019-02-27T05:44:03.117Z,70.17
2019-02-27T06:14:06.803Z,69.53
2019-02-27T06:44:10.514Z,77.15
2019-02-27T07:14:14.246Z,79.05
2019-02-27T07:44:17.961Z,98.80
2019-02-27T08:14:21.739Z,106.35
2019-02-27T08:44:25.478Z,113.47
2019-02-27T09:14:29.216Z,115.97
2019-02-27T09:44:36.398Z,93.85
2019-02-27T10:14:38.265Z,59.18
2019-02-27T10:44:41.961Z,43.75
2019-02-27T11:14:45.663Z,26.85
2019-02-27T11:44:50.195Z,12.20
2019-02-27T12:14:53.997Z,7.78
2019-02-27T12:44:58.001Z,3.02
2019-02-27T13:15:04.454Z,5.65
2019-02-27T13:45:12.660Z,3.27
2019-02-27T14:15:18.066Z,3.52
2019-02-27T14:45:23.547Z,4.60
2019-02-27T15:15:31.625Z,17.17
2019-02-27T15:45:35.374Z,12.70
2019-02-27T16:15:39.073Z,26.23
2019-02-27T16:45:42.858Z,34.27
2019-02-27T17:15:46.584Z,45.40
2019-02-27T17:45:50.337Z,61.40
2019-02-27T18:15:54.083Z,56.10
2019-02-27T18:45:57.821Z,51.60
2019-02-27T19:16:01.558Z,52.67
2019-02-27T19:46:06.993Z,55.75
2019-02-27T20:16:12.413Z,53.15
2019-02-27T20:46:16.151Z,66.37
2019-02-27T21:16:19.915Z,57.50
2019-02-27T21:46:23.904Z,52.27
2019-02-27T22:16:30.509Z,57.67
2019-02-27T22:46:32.972Z,41.83
2019-02-27T23:16:36.663Z,41.28
2019-02-27T23:46:48.770Z,35.30
